Weather History for KEOK - November, 2011

Change the Weather History Date:

Wednesday, November 9, 2011

  Actual Average Record
Temperature  
Mean Temperature 40 °F -  
Max Temperature 48 °F 53 °F 78 °F (1999)
Min Temperature 33 °F 37 °F 4 °F (1991)
Degree Days  
Heating Degree Days 24    
Moisture  
Dew Point 33 °F    
Average Humidity 73    
Maximum Humidity 87    
Minimum Humidity 40    
Precipitation  
Precipitation 0.42 in - - ()
Sea Level Pressure  
Sea Level Pressure 29.91 in    
Wind  
Wind Speed 13 mph (NW)    
Max Wind Speed 29 mph    
Max Gust Speed 46 mph    
Visibility 8 miles    
Events Rain , Snow    
Averages and records for this station are not official NWS values.
T = Trace of Precipitation, MM = Missing Value Source: NWS Daily Summary

Daily Weather History Graph

Daily Weather History Graph

Search for Another Location

Airport or City:

Trip Planner

Search our weather history database for the weather conditions in past years. The results will help you decide how hot, cold, wet, or windy it might be!

Date:

Astronomy

Nov. 09, 2011 Rise Set
Actual Time 6:44 AM CST 4:53 PM CST
Civil Twilight 6:15 AM CST 5:22 PM CST
Nautical Twilight 5:43 AM CST 5:55 PM CST
Astronomical Twilight 5:11 AM CST 6:27 PM CST
Moon 4:05 PM CST (11/9) 5:40 AM CST (11/9)
Length of Visible Light 11h 06m
Length of Day
10h 09m
Waxing Gibbous, 99% of the Moon is Illuminated
Nov 9
Waxing Gibbous
Nov 10
Full
Nov 18
Last Quarter
Nov 25
New
Dec 2
First Quarter

Hourly Weather History & Observations

Time (CST) Temp. Windchill Dew Point Humidity Pressure Visibility Wind Dir Wind Speed Gust Speed Precip Events Conditions
12:15 AM 42.8 °F 37.5 °F 39.2 °F 87% 29.77 in 5.0 mi NE 9.2 mph - 0.01 in   Light Drizzle
12:35 AM 42.8 °F 39.3 °F 37.4 °F 81% 29.76 in 5.0 mi NNE 5.8 mph - 0.01 in Rain Light Rain
12:55 AM 42.8 °F 38.0 °F 39.2 °F 87% 29.74 in 10.0 mi NNE 8.1 mph - 0.01 in   Overcast
1:15 AM 42.8 °F 38.6 °F 37.4 °F 81% 29.73 in 7.0 mi NE 6.9 mph - 0.01 in   Overcast
1:35 AM 42.8 °F 37.0 °F 37.4 °F 81% 29.71 in 4.0 mi NNE 10.4 mph - 0.01 in Rain Light Rain
1:55 AM 42.8 °F 38.6 °F 37.4 °F 81% 29.70 in 5.0 mi NE 6.9 mph - 0.02 in Rain Light Rain
2:15 AM 42.8 °F 38.6 °F 37.4 °F 81% 29.70 in 3.0 mi North 6.9 mph - 0.07 in Rain Heavy Rain
2:35 AM 42.8 °F 37.5 °F 37.4 °F 81% 29.67 in 10.0 mi NNE 9.2 mph - 0.10 in Rain Light Rain
2:55 AM 42.8 °F 38.0 °F 37.4 °F 81% 29.66 in 5.0 mi North 8.1 mph - 0.12 in Rain Light Rain
3:15 AM 42.8 °F 36.2 °F 37.4 °F 81% 29.68 in 3.0 mi NW 12.7 mph 17.3 mph 0.02 in   Heavy Drizzle
3:35 AM 42.8 °F 34.5 °F 37.4 °F 81% 29.69 in 3.0 mi NW 18.4 mph 23.0 mph 0.09 in Rain Rain
3:55 AM 42.8 °F 35.1 °F 37.4 °F 81% 29.69 in 7.0 mi NW 16.1 mph 26.5 mph 0.11 in Rain Light Rain
4:15 AM 42.8 °F 35.1 °F 37.4 °F 81% 29.71 in 10.0 mi NW 16.1 mph 26.5 mph N/A   Overcast
4:35 AM 41.0 °F 31.6 °F 35.6 °F 81% 29.66 in 10.0 mi North 20.7 mph 31.1 mph 0.03 in Rain Light Rain
4:55 AM 41.0 °F 32.5 °F 35.6 °F 81% 29.68 in 10.0 mi North 17.3 mph 31.1 mph 0.03 in   Overcast
5:15 AM 41.0 °F 31.4 °F 35.6 °F 81% 29.66 in 10.0 mi North 21.9 mph 27.6 mph N/A   Overcast
5:35 AM 39.2 °F 29.8 °F 35.6 °F 87% 29.66 in 10.0 mi NNW 18.4 mph 28.8 mph N/A   Overcast
5:55 AM 39.2 °F 29.8 °F 35.6 °F 87% 29.67 in 10.0 mi NW 18.4 mph 24.2 mph N/A   Overcast
6:15 AM 37.4 °F 27.5 °F 33.8 °F 87% 29.74 in 10.0 mi NW 18.4 mph 25.3 mph N/A   Overcast
6:35 AM 37.4 °F 28.2 °F 32.0 °F 81% 29.77 in 10.0 mi NW 16.1 mph 28.8 mph N/A   Overcast
6:55 AM 37.4 °F 30.3 °F 32.0 °F 81% 29.79 in 10.0 mi NNW 10.4 mph 27.6 mph N/A   Overcast
7:15 AM 37.4 °F 29.3 °F 32.0 °F 81% 29.81 in 7.0 mi NW 12.7 mph 26.5 mph N/A   Drizzle
7:35 AM 35.6 °F 26.6 °F 30.2 °F 81% 29.84 in 1.2 mi WNW 13.8 mph 24.2 mph 0.03 in   Drizzle
7:55 AM 35.6 °F 25.5 °F 30.2 °F 81% 29.87 in 1.8 mi WNW 17.3 mph 24.2 mph 0.05 in Rain Light Rain
8:15 AM 35.6 °F 25.9 °F 30.2 °F 81% 29.88 in 4.0 mi WNW 16.1 mph 26.5 mph 0.02 in Rain Light Rain
8:35 AM 33.8 °F 22.2 °F 30.2 °F 87% 29.89 in 3.0 mi WNW 20.7 mph 28.8 mph 0.03 in Rain Light Rain
8:55 AM 33.8 °F 22.5 °F 28.4 °F 81% 29.90 in 3.0 mi WNW 19.6 mph 28.8 mph 0.04 in Rain Light Rain
9:15 AM 33.8 °F 21.9 °F 30.2 °F 87% 29.91 in 4.0 mi NW 21.9 mph 29.9 mph 0.01 in Snow Light Snow
9:35 AM 35.6 °F 24.2 °F 30.2 °F 81% 29.93 in 7.0 mi NW 21.9 mph 33.4 mph 0.02 in Rain Light Rain
9:55 AM 35.6 °F 24.5 °F 30.2 °F 81% 29.94 in 4.0 mi WNW 20.7 mph 34.5 mph 0.03 in Rain Light Rain
10:35 AM 37.4 °F 25.2 °F 32.0 °F 81% 29.97 in 7.0 mi NW 28.8 mph 46.0 mph 0.01 in Rain Light Rain
10:55 AM 37.4 °F 26.6 °F 33.8 °F 87% 29.98 in 10.0 mi NW 21.9 mph 33.4 mph 0.01 in   Light Drizzle
11:15 AM 37.4 °F 25.6 °F 33.8 °F 87% 29.99 in 10.0 mi NW 26.5 mph 41.4 mph N/A   Overcast
11:35 AM 39.2 °F 29.3 °F 33.8 °F 81% 30.01 in 10.0 mi NW 20.7 mph 39.1 mph N/A   Overcast
12:15 PM 39.2 °F 29.8 °F 33.8 °F 81% 30.02 in 10.0 mi NW 18.4 mph 24.2 mph N/A   Mostly Cloudy
12:35 PM 39.2 °F 29.3 °F 35.6 °F 87% 30.02 in 10.0 mi West 20.7 mph 25.3 mph N/A   Scattered Clouds
12:55 PM 41.0 °F 31.9 °F 35.6 °F 81% 30.02 in 10.0 mi WNW 19.6 mph 27.6 mph N/A   Scattered Clouds
1:15 PM 44.6 °F 37.2 °F 37.4 °F 76% 30.03 in 10.0 mi WNW 17.3 mph 25.3 mph N/A   Clear
1:35 PM 46.4 °F 39.5 °F 33.8 °F 62% 30.03 in 10.0 mi NW 17.3 mph 25.3 mph N/A   Clear
1:55 PM 46.4 °F 39.5 °F 30.2 °F 53% 30.04 in 10.0 mi WNW 17.3 mph 23.0 mph N/A   Clear
2:15 PM 48.2 °F - 30.2 °F 50% 30.04 in 10.0 mi WNW 17.3 mph 24.2 mph N/A   Clear
2:35 PM 48.2 °F - 28.4 °F 46% 30.05 in 10.0 mi WNW 24.2 mph 29.9 mph N/A   Clear
2:55 PM 48.2 °F - 26.6 °F 43% 30.06 in 10.0 mi WNW 12.7 mph 25.3 mph N/A   Clear
3:15 PM 48.2 °F - 24.8 °F 40% 30.07 in 10.0 mi WNW 15.0 mph 24.2 mph N/A   Clear
3:35 PM 48.2 °F - 24.8 °F 40% 30.08 in 10.0 mi WNW 15.0 mph 21.9 mph N/A   Clear
3:55 PM 46.4 °F 39.5 °F 26.6 °F 46% 30.08 in 10.0 mi West 17.3 mph - N/A   Clear
4:15 PM 46.4 °F 40.1 °F 26.6 °F 46% 30.09 in 10.0 mi West 15.0 mph 23.0 mph N/A   Clear
4:35 PM 44.6 °F 37.2 °F 28.4 °F 53% 30.09 in 10.0 mi West 17.3 mph 20.7 mph N/A   Clear
4:55 PM 44.6 °F 39.2 °F 28.4 °F 53% 30.10 in 10.0 mi West 10.4 mph 16.1 mph N/A   Clear
5:15 PM 44.6 °F 39.2 °F 30.2 °F 57% 30.11 in 10.0 mi West 10.4 mph - N/A   Clear
5:35 PM 42.8 °F 37.5 °F 30.2 °F 61% 30.11 in 10.0 mi West 9.2 mph - N/A   Clear
5:55 PM 41.0 °F 35.8 °F 30.2 °F 65% 30.11 in 10.0 mi West 8.1 mph - N/A   Clear
6:15 PM 39.2 °F 35.0 °F 30.2 °F 70% 30.11 in 10.0 mi WSW 5.8 mph - N/A   Clear
6:35 PM 39.2 °F 33.0 °F 30.2 °F 70% 30.11 in 10.0 mi WSW 9.2 mph - N/A   Clear
6:55 PM 41.0 °F 34.7 °F 30.2 °F 65% 30.11 in 10.0 mi WSW 10.4 mph - N/A   Clear
7:15 PM 39.2 °F 32.0 °F 30.2 °F 70% 30.11 in 10.0 mi West 11.5 mph 16.1 mph N/A   Clear
7:35 PM 41.0 °F 33.9 °F 30.2 °F 65% 30.11 in 10.0 mi West 12.7 mph - N/A   Clear
8:15 PM 41.0 °F 34.3 °F 28.4 °F 61% 30.11 in 10.0 mi West 11.5 mph 17.3 mph N/A   Clear
8:35 PM 41.0 °F 34.7 °F 28.4 °F 61% 30.12 in 10.0 mi West 10.4 mph 17.3 mph N/A   Clear
8:55 PM 39.2 °F 32.0 °F 28.4 °F 65% 30.12 in 10.0 mi West 11.5 mph - N/A   Clear
9:15 PM 39.2 °F 32.0 °F 26.6 °F 61% 30.13 in 10.0 mi West 11.5 mph - N/A   Clear
9:35 PM 39.2 °F 32.5 °F 26.6 °F 61% 30.13 in 10.0 mi West 10.4 mph - N/A   Clear
9:55 PM 39.2 °F 32.5 °F 26.6 °F 61% 30.14 in 10.0 mi West 10.4 mph - N/A   Clear
10:15 PM 39.2 °F 32.0 °F 26.6 °F 61% 30.13 in 10.0 mi West 11.5 mph - N/A   Clear
10:35 PM 37.4 °F 30.3 °F 26.6 °F 65% 30.13 in 10.0 mi West 10.4 mph - N/A   Clear
10:55 PM 37.4 °F 30.8 °F 26.6 °F 65% 30.13 in 10.0 mi West 9.2 mph - N/A   Clear
11:15 PM 35.6 °F 28.6 °F 26.6 °F 70% 30.13 in 10.0 mi West 9.2 mph - N/A   Clear
11:35 PM 35.6 °F 28.0 °F 24.8 °F 65% 30.13 in 10.0 mi West 10.4 mph - N/A   Clear
11:55 PM 35.6 °F 28.6 °F 24.8 °F 65% 30.13 in 10.0 mi West 9.2 mph - N/A   Clear